sensor_id;sensor_type;location;lat;lon;timestamp;P1;durP1;ratioP1;P2;durP2;ratioP2
19127;SDS011;9696;53.686;10.094;2023-02-01T00:01:46;9.80;;;1.43;;
19127;SDS011;9696;53.686;10.094;2023-02-01T00:04:15;4.97;;;1.20;;
19127;SDS011;9696;53.686;10.094;2023-02-01T00:06:46;9.30;;;1.87;;
19127;SDS011;9696;53.686;10.094;2023-02-01T00:09:15;18.53;;;2.13;;
19127;SDS011;9696;53.686;10.094;2023-02-01T00:11:44;10.67;;;2.67;;
19127;SDS011;9696;53.686;10.094;2023-02-01T00:14:13;22.43;;;2.83;;
19127;SDS011;9696;53.686;10.094;2023-02-01T00:16:43;22.17;;;3.07;;
19127;SDS011;9696;53.686;10.094;2023-02-01T00:19:13;11.87;;;1.87;;
19127;SDS011;9696;53.686;10.094;2023-02-01T00:21:43;18.83;;;2.93;;
19127;SDS011;9696;53.686;10.094;2023-02-01T00:24:13;13.47;;;2.47;;
19127;SDS011;9696;53.686;10.094;2023-02-01T00:26:43;14.20;;;2.17;;
19127;SDS011;9696;53.686;10.094;2023-02-01T00:29:14;8.27;;;2.03;;
19127;SDS011;9696;53.686;10.094;2023-02-01T00:31:44;11.73;;;1.70;;
19127;SDS011;9696;53.686;10.094;2023-02-01T00:34:14;12.23;;;1.73;;
19127;SDS011;9696;53.686;10.094;2023-02-01T00:36:44;13.10;;;2.47;;
19127;SDS011;9696;53.686;10.094;2023-02-01T00:39:15;15.70;;;1.70;;
19127;SDS011;9696;53.686;10.094;2023-02-01T00:41:44;11.90;;;2.10;;
19127;SDS011;9696;53.686;10.094;2023-02-01T00:44:13;21.60;;;3.37;;
19127;SDS011;9696;53.686;10.094;2023-02-01T00:46:43;14.83;;;3.00;;
19127;SDS011;9696;53.686;10.094;2023-02-01T00:49:12;20.97;;;2.93;;
19127;SDS011;9696;53.686;10.094;2023-02-01T00:51:41;13.97;;;2.10;;
19127;SDS011;9696;53.686;10.094;2023-02-01T00:54:10;22.93;;;2.53;;
19127;SDS011;9696;53.686;10.094;2023-02-01T00:56:40;15.00;;;2.80;;
19127;SDS011;9696;53.686;10.094;2023-02-01T00:59:10;29.90;;;2.90;;
19127;SDS011;9696;53.686;10.094;2023-02-01T01:01:39;17.83;;;3.10;;
19127;SDS011;9696;53.686;10.094;2023-02-01T01:04:09;19.37;;;2.50;;
19127;SDS011;9696;53.686;10.094;2023-02-01T01:06:38;12.93;;;3.07;;
19127;SDS011;9696;53.686;10.094;2023-02-01T01:09:07;29.23;;;3.70;;
19127;SDS011;9696;53.686;10.094;2023-02-01T01:11:37;22.87;;;2.57;;
19127;SDS011;9696;53.686;10.094;2023-02-01T01:14:08;20.77;;;2.53;;
19127;SDS011;9696;53.686;10.094;2023-02-01T01:16:38;21.17;;;3.40;;
19127;SDS011;9696;53.686;10.094;2023-02-01T01:19:07;12.90;;;2.63;;
19127;SDS011;9696;53.686;10.094;2023-02-01T01:21:36;22.57;;;3.00;;
19127;SDS011;9696;53.686;10.094;2023-02-01T01:24:06;23.30;;;3.30;;
19127;SDS011;9696;53.686;10.094;2023-02-01T01:26:35;28.33;;;4.37;;
19127;SDS011;9696;53.686;10.094;2023-02-01T01:29:04;23.43;;;3.03;;
19127;SDS011;9696;53.686;10.094;2023-02-01T01:31:35;28.90;;;3.93;;
19127;SDS011;9696;53.686;10.094;2023-02-01T01:34:04;26.30;;;4.27;;
19127;SDS011;9696;53.686;10.094;2023-02-01T01:36:33;23.30;;;3.43;;
19127;SDS011;9696;53.686;10.094;2023-02-01T01:39:02;18.67;;;3.70;;
19127;SDS011;9696;53.686;10.094;2023-02-01T01:41:32;52.10;;;4.77;;
19127;SDS011;9696;53.686;10.094;2023-02-01T01:47:22;34.93;;;4.37;;
19127;SDS011;9696;53.686;10.094;2023-02-01T01:49:51;21.10;;;2.73;;
19127;SDS011;9696;53.686;10.094;2023-02-01T01:52:20;24.27;;;3.67;;
19127;SDS011;9696;53.686;10.094;2023-02-01T01:54:50;32.27;;;4.30;;
19127;SDS011;9696;53.686;10.094;2023-02-01T01:57:23;30.40;;;3.57;;
19127;SDS011;9696;53.686;10.094;2023-02-01T01:59:57;31.50;;;3.90;;
19127;SDS011;9696;53.686;10.094;2023-02-01T02:02:40;24.83;;;2.77;;
19127;SDS011;9696;53.686;10.094;2023-02-01T02:05:13;30.80;;;3.37;;
19127;SDS011;9696;53.686;10.094;2023-02-01T02:07:45;24.37;;;3.57;;
19127;SDS011;9696;53.686;10.094;2023-02-01T02:10:16;23.07;;;2.97;;
19127;SDS011;9696;53.686;10.094;2023-02-01T02:12:46;20.30;;;3.03;;
19127;SDS011;9696;53.686;10.094;2023-02-01T02:15:17;18.47;;;3.03;;
19127;SDS011;9696;53.686;10.094;2023-02-01T02:17:49;15.07;;;2.90;;
19127;SDS011;9696;53.686;10.094;2023-02-01T02:20:39;13.60;;;3.20;;
19127;SDS011;9696;53.686;10.094;2023-02-01T02:23:33;24.83;;;3.83;;
19127;SDS011;9696;53.686;10.094;2023-02-01T02:29:30;31.90;;;3.20;;
19127;SDS011;9696;53.686;10.094;2023-02-01T02:35:18;23.67;;;3.80;;
19127;SDS011;9696;53.686;10.094;2023-02-01T02:37:56;16.07;;;3.10;;
19127;SDS011;9696;53.686;10.094;2023-02-01T02:40:34;17.47;;;3.07;;
19127;SDS011;9696;53.686;10.094;2023-02-01T02:43:10;37.10;;;4.67;;
19127;SDS011;9696;53.686;10.094;2023-02-01T02:46:07;34.57;;;3.97;;
19127;SDS011;9696;53.686;10.094;2023-02-01T02:49:05;19.67;;;3.07;;
19127;SDS011;9696;53.686;10.094;2023-02-01T02:51:42;23.03;;;4.00;;
19127;SDS011;9696;53.686;10.094;2023-02-01T02:54:34;20.77;;;2.90;;
19127;SDS011;9696;53.686;10.094;2023-02-01T02:57:16;17.60;;;3.30;;
19127;SDS011;9696;53.686;10.094;2023-02-01T03:00:06;20.50;;;2.50;;
19127;SDS011;9696;53.686;10.094;2023-02-01T03:02:55;16.10;;;2.50;;
19127;SDS011;9696;53.686;10.094;2023-02-01T03:05:43;16.43;;;3.33;;
19127;SDS011;9696;53.686;10.094;2023-02-01T03:08:16;16.63;;;2.53;;
19127;SDS011;9696;53.686;10.094;2023-02-01T03:10:53;18.87;;;2.80;;
19127;SDS011;9696;53.686;10.094;2023-02-01T03:13:30;16.47;;;2.50;;
19127;SDS011;9696;53.686;10.094;2023-02-01T03:16:05;14.97;;;2.47;;
19127;SDS011;9696;53.686;10.094;2023-02-01T03:18:42;14.33;;;2.43;;
19127;SDS011;9696;53.686;10.094;2023-02-01T03:21:20;18.90;;;2.50;;
19127;SDS011;9696;53.686;10.094;2023-02-01T03:23:54;12.00;;;1.73;;
19127;SDS011;9696;53.686;10.094;2023-02-01T03:26:26;12.33;;;2.20;;
19127;SDS011;9696;53.686;10.094;2023-02-01T03:29:00;17.67;;;2.07;;
19127;SDS011;9696;53.686;10.094;2023-02-01T03:31:35;12.70;;;1.77;;
19127;SDS011;9696;53.686;10.094;2023-02-01T03:34:04;12.17;;;1.53;;
19127;SDS011;9696;53.686;10.094;2023-02-01T03:36:35;17.17;;;2.03;;
19127;SDS011;9696;53.686;10.094;2023-02-01T03:39:11;9.50;;;1.87;;
19127;SDS011;9696;53.686;10.094;2023-02-01T03:41:47;12.43;;;1.63;;
19127;SDS011;9696;53.686;10.094;2023-02-01T03:44:22;22.13;;;2.10;;
19127;SDS011;9696;53.686;10.094;2023-02-01T03:46:55;12.63;;;2.40;;
19127;SDS011;9696;53.686;10.094;2023-02-01T03:49:33;14.47;;;2.07;;
19127;SDS011;9696;53.686;10.094;2023-02-01T03:52:06;9.53;;;2.20;;
19127;SDS011;9696;53.686;10.094;2023-02-01T03:54:41;12.17;;;1.83;;
19127;SDS011;9696;53.686;10.094;2023-02-01T03:57:12;13.73;;;2.07;;
19127;SDS011;9696;53.686;10.094;2023-02-01T03:59:44;19.90;;;3.13;;
19127;SDS011;9696;53.686;10.094;2023-02-01T04:02:14;5.90;;;0.93;;
19127;SDS011;9696;53.686;10.094;2023-02-01T04:04:43;13.73;;;2.17;;
19127;SDS011;9696;53.686;10.094;2023-02-01T04:07:15;20.33;;;2.13;;
19127;SDS011;9696;53.686;10.094;2023-02-01T04:09:46;11.70;;;2.27;;
19127;SDS011;9696;53.686;10.094;2023-02-01T04:12:15;10.97;;;2.03;;
19127;SDS011;9696;53.686;10.094;2023-02-01T04:14:45;6.13;;;1.07;;
19127;SDS011;9696;53.686;10.094;2023-02-01T04:17:14;8.10;;;1.67;;
19127;SDS011;9696;53.686;10.094;2023-02-01T04:19:43;10.67;;;1.77;;
19127;SDS011;9696;53.686;10.094;2023-02-01T04:22:12;8.40;;;1.80;;
19127;SDS011;9696;53.686;10.094;2023-02-01T04:24:44;6.63;;;1.33;;
19127;SDS011;9696;53.686;10.094;2023-02-01T04:27:15;7.70;;;1.90;;
19127;SDS011;9696;53.686;10.094;2023-02-01T04:29:44;7.33;;;2.30;;
19127;SDS011;9696;53.686;10.094;2023-02-01T04:32:13;14.60;;;1.93;;
19127;SDS011;9696;53.686;10.094;2023-02-01T04:34:42;8.57;;;1.77;;
19127;SDS011;9696;53.686;10.094;2023-02-01T04:37:11;11.43;;;1.40;;
19127;SDS011;9696;53.686;10.094;2023-02-01T04:39:40;12.77;;;1.67;;
19127;SDS011;9696;53.686;10.094;2023-02-01T04:42:11;10.83;;;2.10;;
19127;SDS011;9696;53.686;10.094;2023-02-01T04:44:41;7.20;;;0.87;;
19127;SDS011;9696;53.686;10.094;2023-02-01T04:47:10;11.93;;;1.93;;
19127;SDS011;9696;53.686;10.094;2023-02-01T04:49:39;9.30;;;1.33;;
19127;SDS011;9696;53.686;10.094;2023-02-01T04:52:08;6.10;;;1.40;;
19127;SDS011;9696;53.686;10.094;2023-02-01T04:54:37;9.00;;;1.90;;
19127;SDS011;9696;53.686;10.094;2023-02-01T04:57:06;7.43;;;1.30;;
19127;SDS011;9696;53.686;10.094;2023-02-01T04:59:37;13.60;;;1.10;;
19127;SDS011;9696;53.686;10.094;2023-02-01T05:02:06;8.93;;;1.40;;
19127;SDS011;9696;53.686;10.094;2023-02-01T05:04:36;13.33;;;1.73;;
19127;SDS011;9696;53.686;10.094;2023-02-01T05:07:05;6.50;;;0.80;;
19127;SDS011;9696;53.686;10.094;2023-02-01T05:09:34;3.50;;;1.10;;
19127;SDS011;9696;53.686;10.094;2023-02-01T05:12:03;8.47;;;1.00;;
19127;SDS011;9696;53.686;10.094;2023-02-01T05:14:51;3.30;;;0.77;;
19127;SDS011;9696;53.686;10.094;2023-02-01T05:17:20;16.20;;;1.80;;
19127;SDS011;9696;53.686;10.094;2023-02-01T05:19:50;6.37;;;1.00;;
19127;SDS011;9696;53.686;10.094;2023-02-01T05:22:19;6.10;;;0.97;;
19127;SDS011;9696;53.686;10.094;2023-02-01T05:24:48;6.87;;;1.13;;
19127;SDS011;9696;53.686;10.094;2023-02-01T05:27:17;6.67;;;1.40;;
19127;SDS011;9696;53.686;10.094;2023-02-01T05:29:46;3.03;;;0.63;;
19127;SDS011;9696;53.686;10.094;2023-02-01T05:32:16;8.90;;;1.03;;
19127;SDS011;9696;53.686;10.094;2023-02-01T05:34:48;4.83;;;1.00;;
19127;SDS011;9696;53.686;10.094;2023-02-01T05:37:17;2.37;;;0.80;;
19127;SDS011;9696;53.686;10.094;2023-02-01T05:39:46;2.73;;;0.93;;
19127;SDS011;9696;53.686;10.094;2023-02-01T05:42:16;2.20;;;0.80;;
19127;SDS011;9696;53.686;10.094;2023-02-01T05:44:45;7.97;;;0.90;;
19127;SDS011;9696;53.686;10.094;2023-02-01T05:47:14;7.77;;;0.67;;
19127;SDS011;9696;53.686;10.094;2023-02-01T05:49:44;2.60;;;0.50;;
19127;SDS011;9696;53.686;10.094;2023-02-01T05:52:13;3.57;;;0.70;;
19127;SDS011;9696;53.686;10.094;2023-02-01T05:54:46;1.77;;;0.57;;
19127;SDS011;9696;53.686;10.094;2023-02-01T05:57:15;2.33;;;0.40;;
19127;SDS011;9696;53.686;10.094;2023-02-01T05:59:44;0.40;;;0.40;;
19127;SDS011;9696;53.686;10.094;2023-02-01T06:02:14;1.43;;;0.50;;
19127;SDS011;9696;53.686;10.094;2023-02-01T06:04:45;1.67;;;0.40;;
19127;SDS011;9696;53.686;10.094;2023-02-01T06:07:14;0.57;;;0.23;;
19127;SDS011;9696;53.686;10.094;2023-02-01T06:09:43;1.93;;;0.57;;
19127;SDS011;9696;53.686;10.094;2023-02-01T06:12:13;3.97;;;0.90;;
19127;SDS011;9696;53.686;10.094;2023-02-01T06:14:42;2.43;;;0.70;;
19127;SDS011;9696;53.686;10.094;2023-02-01T06:17:12;1.43;;;0.33;;
19127;SDS011;9696;53.686;10.094;2023-02-01T06:19:42;1.50;;;0.40;;
19127;SDS011;9696;53.686;10.094;2023-02-01T06:22:11;4.00;;;0.40;;
19127;SDS011;9696;53.686;10.094;2023-02-01T06:24:41;2.27;;;0.57;;
19127;SDS011;9696;53.686;10.094;2023-02-01T06:27:10;1.67;;;0.70;;
19127;SDS011;9696;53.686;10.094;2023-02-01T06:29:40;2.13;;;0.53;;
19127;SDS011;9696;53.686;10.094;2023-02-01T06:32:10;0.70;;;0.60;;
19127;SDS011;9696;53.686;10.094;2023-02-01T06:34:39;5.47;;;0.60;;
19127;SDS011;9696;53.686;10.094;2023-02-01T06:37:11;4.13;;;0.67;;
19127;SDS011;9696;53.686;10.094;2023-02-01T06:39:41;1.20;;;0.70;;
19127;SDS011;9696;53.686;10.094;2023-02-01T06:42:11;1.57;;;0.63;;
19127;SDS011;9696;53.686;10.094;2023-02-01T06:44:41;4.87;;;1.07;;
19127;SDS011;9696;53.686;10.094;2023-02-01T06:47:11;8.57;;;0.93;;
19127;SDS011;9696;53.686;10.094;2023-02-01T06:49:41;6.37;;;1.40;;
19127;SDS011;9696;53.686;10.094;2023-02-01T06:52:12;5.70;;;1.00;;
19127;SDS011;9696;53.686;10.094;2023-02-01T06:54:42;4.30;;;1.03;;
19127;SDS011;9696;53.686;10.094;2023-02-01T06:57:12;3.80;;;0.90;;
19127;SDS011;9696;53.686;10.094;2023-02-01T06:59:42;7.50;;;0.67;;
19127;SDS011;9696;53.686;10.094;2023-02-01T07:02:11;11.53;;;1.30;;
19127;SDS011;9696;53.686;10.094;2023-02-01T07:04:40;8.80;;;1.20;;
19127;SDS011;9696;53.686;10.094;2023-02-01T07:07:09;7.43;;;0.77;;
19127;SDS011;9696;53.686;10.094;2023-02-01T07:09:40;8.63;;;1.27;;
19127;SDS011;9696;53.686;10.094;2023-02-01T07:12:09;10.93;;;1.43;;
19127;SDS011;9696;53.686;10.094;2023-02-01T07:14:38;10.10;;;1.10;;
19127;SDS011;9696;53.686;10.094;2023-02-01T07:17:07;6.70;;;1.30;;
19127;SDS011;9696;53.686;10.094;2023-02-01T07:19:36;7.83;;;1.70;;
19127;SDS011;9696;53.686;10.094;2023-02-01T07:22:05;6.67;;;1.30;;
19127;SDS011;9696;53.686;10.094;2023-02-01T07:24:36;7.07;;;1.17;;
19127;SDS011;9696;53.686;10.094;2023-02-01T07:27:05;11.13;;;1.50;;
19127;SDS011;9696;53.686;10.094;2023-02-01T07:29:34;7.03;;;1.63;;
19127;SDS011;9696;53.686;10.094;2023-02-01T07:32:03;8.27;;;1.90;;
19127;SDS011;9696;53.686;10.094;2023-02-01T07:34:33;13.07;;;2.40;;
19127;SDS011;9696;53.686;10.094;2023-02-01T07:37:02;10.03;;;2.43;;
19127;SDS011;9696;53.686;10.094;2023-02-01T07:39:31;8.97;;;2.20;;
19127;SDS011;9696;53.686;10.094;2023-02-01T07:42:01;4.03;;;1.23;;
19127;SDS011;9696;53.686;10.094;2023-02-01T07:44:30;12.70;;;2.00;;
19127;SDS011;9696;53.686;10.094;2023-02-01T07:47:00;13.67;;;2.10;;
19127;SDS011;9696;53.686;10.094;2023-02-01T07:49:29;14.37;;;2.10;;
19127;SDS011;9696;53.686;10.094;2023-02-01T07:51:58;11.37;;;2.00;;
19127;SDS011;9696;53.686;10.094;2023-02-01T07:54:27;25.97;;;3.40;;
19127;SDS011;9696;53.686;10.094;2023-02-01T07:56:57;12.07;;;2.17;;
19127;SDS011;9696;53.686;10.094;2023-02-01T07:59:27;16.13;;;2.00;;
19127;SDS011;9696;53.686;10.094;2023-02-01T08:01:56;21.50;;;2.40;;
19127;SDS011;9696;53.686;10.094;2023-02-01T08:04:24;13.90;;;1.93;;
19127;SDS011;9696;53.686;10.094;2023-02-01T08:06:55;13.20;;;2.17;;
19127;SDS011;9696;53.686;10.094;2023-02-01T08:09:24;26.80;;;3.37;;
19127;SDS011;9696;53.686;10.094;2023-02-01T08:11:54;19.50;;;2.37;;
19127;SDS011;9696;53.686;10.094;2023-02-01T08:14:23;20.87;;;2.90;;
19127;SDS011;9696;53.686;10.094;2023-02-01T08:16:53;32.17;;;3.73;;
19127;SDS011;9696;53.686;10.094;2023-02-01T08:19:22;15.13;;;2.40;;
19127;SDS011;9696;53.686;10.094;2023-02-01T08:21:51;28.73;;;3.30;;
19127;SDS011;9696;53.686;10.094;2023-02-01T08:24:20;12.60;;;2.27;;
19127;SDS011;9696;53.686;10.094;2023-02-01T08:26:49;13.40;;;2.63;;
19127;SDS011;9696;53.686;10.094;2023-02-01T08:29:18;18.80;;;3.30;;
19127;SDS011;9696;53.686;10.094;2023-02-01T08:31:48;17.60;;;1.90;;
19127;SDS011;9696;53.686;10.094;2023-02-01T08:34:19;17.50;;;3.10;;
19127;SDS011;9696;53.686;10.094;2023-02-01T08:36:48;25.53;;;2.50;;
19127;SDS011;9696;53.686;10.094;2023-02-01T08:39:18;29.87;;;3.30;;
19127;SDS011;9696;53.686;10.094;2023-02-01T08:41:47;15.77;;;2.80;;
19127;SDS011;9696;53.686;10.094;2023-02-01T08:44:36;29.03;;;2.80;;
19127;SDS011;9696;53.686;10.094;2023-02-01T08:47:06;21.47;;;3.07;;
19127;SDS011;9696;53.686;10.094;2023-02-01T08:49:36;13.70;;;2.03;;
19127;SDS011;9696;53.686;10.094;2023-02-01T08:52:06;7.63;;;2.13;;
19127;SDS011;9696;53.686;10.094;2023-02-01T08:54:42;18.03;;;3.10;;
19127;SDS011;9696;53.686;10.094;2023-02-01T08:57:11;15.90;;;2.80;;
19127;SDS011;9696;53.686;10.094;2023-02-01T08:59:40;10.70;;;1.63;;
19127;SDS011;9696;53.686;10.094;2023-02-01T09:02:11;10.93;;;2.00;;
19127;SDS011;9696;53.686;10.094;2023-02-01T09:04:42;11.73;;;1.80;;
19127;SDS011;9696;53.686;10.094;2023-02-01T09:07:12;9.17;;;1.63;;
19127;SDS011;9696;53.686;10.094;2023-02-01T09:09:41;18.43;;;2.63;;
19127;SDS011;9696;53.686;10.094;2023-02-01T09:12:11;7.70;;;1.57;;
19127;SDS011;9696;53.686;10.094;2023-02-01T09:14:40;15.97;;;1.87;;
19127;SDS011;9696;53.686;10.094;2023-02-01T09:17:10;10.17;;;2.00;;
19127;SDS011;9696;53.686;10.094;2023-02-01T09:19:40;19.67;;;2.47;;
19127;SDS011;9696;53.686;10.094;2023-02-01T09:22:10;17.80;;;1.83;;
19127;SDS011;9696;53.686;10.094;2023-02-01T09:24:39;16.60;;;1.73;;
19127;SDS011;9696;53.686;10.094;2023-02-01T09:27:08;16.57;;;2.17;;
19127;SDS011;9696;53.686;10.094;2023-02-01T09:29:39;19.33;;;2.60;;
19127;SDS011;9696;53.686;10.094;2023-02-01T09:32:08;21.00;;;3.00;;
19127;SDS011;9696;53.686;10.094;2023-02-01T09:34:37;18.73;;;3.17;;
19127;SDS011;9696;53.686;10.094;2023-02-01T09:37:08;17.20;;;2.23;;
19127;SDS011;9696;53.686;10.094;2023-02-01T09:39:37;14.00;;;2.17;;
19127;SDS011;9696;53.686;10.094;2023-02-01T09:42:08;12.13;;;2.33;;
19127;SDS011;9696;53.686;10.094;2023-02-01T09:44:51;9.23;;;2.20;;
19127;SDS011;9696;53.686;10.094;2023-02-01T09:47:46;17.90;;;2.60;;
19127;SDS011;9696;53.686;10.094;2023-02-01T09:50:19;9.20;;;1.57;;
19127;SDS011;9696;53.686;10.094;2023-02-01T09:52:55;20.47;;;2.13;;
19127;SDS011;9696;53.686;10.094;2023-02-01T09:55:31;15.40;;;3.23;;
19127;SDS011;9696;53.686;10.094;2023-02-01T09:58:05;14.20;;;2.40;;
19127;SDS011;9696;53.686;10.094;2023-02-01T10:00:49;19.93;;;2.70;;
19127;SDS011;9696;53.686;10.094;2023-02-01T10:03:21;19.50;;;3.00;;
19127;SDS011;9696;53.686;10.094;2023-02-01T10:05:56;20.97;;;3.63;;
19127;SDS011;9696;53.686;10.094;2023-02-01T10:08:45;15.43;;;2.60;;
19127;SDS011;9696;53.686;10.094;2023-02-01T10:11:36;20.07;;;3.93;;
19127;SDS011;9696;53.686;10.094;2023-02-01T10:14:21;19.57;;;2.87;;
19127;SDS011;9696;53.686;10.094;2023-02-01T10:17:08;18.03;;;3.97;;
19127;SDS011;9696;53.686;10.094;2023-02-01T10:19:49;17.40;;;3.00;;
19127;SDS011;9696;53.686;10.094;2023-02-01T10:22:35;20.43;;;3.13;;
19127;SDS011;9696;53.686;10.094;2023-02-01T10:25:31;16.83;;;2.37;;
19127;SDS011;9696;53.686;10.094;2023-02-01T10:28:10;22.23;;;3.37;;
19127;SDS011;9696;53.686;10.094;2023-02-01T10:30:44;18.73;;;2.53;;
19127;SDS011;9696;53.686;10.094;2023-02-01T10:33:15;16.50;;;2.87;;
19127;SDS011;9696;53.686;10.094;2023-02-01T10:35:46;21.17;;;2.80;;
19127;SDS011;9696;53.686;10.094;2023-02-01T10:38:22;12.37;;;2.37;;
19127;SDS011;9696;53.686;10.094;2023-02-01T10:40:58;26.00;;;3.20;;
19127;SDS011;9696;53.686;10.094;2023-02-01T10:43:31;12.40;;;2.03;;
19127;SDS011;9696;53.686;10.094;2023-02-01T10:46:00;24.53;;;3.70;;
19127;SDS011;9696;53.686;10.094;2023-02-01T10:48:30;29.53;;;5.53;;
19127;SDS011;9696;53.686;10.094;2023-02-01T10:51:00;22.50;;;4.47;;
19127;SDS011;9696;53.686;10.094;2023-02-01T10:53:34;16.60;;;2.40;;
19127;SDS011;9696;53.686;10.094;2023-02-01T10:56:12;15.57;;;3.20;;
19127;SDS011;9696;53.686;10.094;2023-02-01T10:58:45;15.70;;;2.17;;
19127;SDS011;9696;53.686;10.094;2023-02-01T11:01:16;23.10;;;3.60;;
19127;SDS011;9696;53.686;10.094;2023-02-01T11:03:51;23.30;;;3.17;;
19127;SDS011;9696;53.686;10.094;2023-02-01T11:06:24;26.47;;;5.00;;
19127;SDS011;9696;53.686;10.094;2023-02-01T11:08:57;22.77;;;2.83;;
19127;SDS011;9696;53.686;10.094;2023-02-01T11:11:29;16.70;;;2.90;;
19127;SDS011;9696;53.686;10.094;2023-02-01T11:13:59;11.30;;;1.83;;
19127;SDS011;9696;53.686;10.094;2023-02-01T11:16:46;27.93;;;3.13;;
19127;SDS011;9696;53.686;10.094;2023-02-01T11:19:17;21.93;;;2.27;;
19127;SDS011;9696;53.686;10.094;2023-02-01T11:21:48;14.53;;;2.20;;
19127;SDS011;9696;53.686;10.094;2023-02-01T11:24:20;12.93;;;2.23;;
19127;SDS011;9696;53.686;10.094;2023-02-01T11:26:55;13.63;;;2.30;;
19127;SDS011;9696;53.686;10.094;2023-02-01T11:29:26;16.73;;;2.90;;
19127;SDS011;9696;53.686;10.094;2023-02-01T11:32:02;18.17;;;2.23;;
19127;SDS011;9696;53.686;10.094;2023-02-01T11:34:33;10.37;;;2.50;;
19127;SDS011;9696;53.686;10.094;2023-02-01T11:37:06;17.33;;;2.80;;
19127;SDS011;9696;53.686;10.094;2023-02-01T11:39:53;13.17;;;3.17;;
19127;SDS011;9696;53.686;10.094;2023-02-01T11:42:25;16.87;;;2.43;;
19127;SDS011;9696;53.686;10.094;2023-02-01T11:45:13;11.97;;;2.13;;
19127;SDS011;9696;53.686;10.094;2023-02-01T11:47:48;20.00;;;2.70;;
19127;SDS011;9696;53.686;10.094;2023-02-01T11:50:24;11.23;;;3.00;;
19127;SDS011;9696;53.686;10.094;2023-02-01T11:53:02;14.87;;;2.27;;
19127;SDS011;9696;53.686;10.094;2023-02-01T11:55:48;16.57;;;1.67;;
19127;SDS011;9696;53.686;10.094;2023-02-01T11:58:39;11.40;;;1.70;;
19127;SDS011;9696;53.686;10.094;2023-02-01T12:01:39;14.37;;;2.10;;
19127;SDS011;9696;53.686;10.094;2023-02-01T12:04:38;13.60;;;1.93;;
19127;SDS011;9696;53.686;10.094;2023-02-01T12:07:28;15.83;;;2.70;;
19127;SDS011;9696;53.686;10.094;2023-02-01T12:10:12;13.60;;;2.53;;
19127;SDS011;9696;53.686;10.094;2023-02-01T12:12:55;3.50;;;1.10;;
19127;SDS011;9696;53.686;10.094;2023-02-01T12:15:39;9.63;;;2.10;;
19127;SDS011;9696;53.686;10.094;2023-02-01T12:18:29;8.90;;;2.03;;
19127;SDS011;9696;53.686;10.094;2023-02-01T12:21:18;9.80;;;1.33;;
19127;SDS011;9696;53.686;10.094;2023-02-01T12:26:56;5.30;;;1.47;;
19127;SDS011;9696;53.686;10.094;2023-02-01T12:29:47;12.90;;;2.63;;
19127;SDS011;9696;53.686;10.094;2023-02-01T12:32:32;8.73;;;2.70;;
19127;SDS011;9696;53.686;10.094;2023-02-01T12:35:13;12.67;;;1.70;;
19127;SDS011;9696;53.686;10.094;2023-02-01T12:37:57;4.33;;;0.90;;
19127;SDS011;9696;53.686;10.094;2023-02-01T12:40:48;2.30;;;0.70;;
19127;SDS011;9696;53.686;10.094;2023-02-01T12:43:31;3.50;;;0.87;;
19127;SDS011;9696;53.686;10.094;2023-02-01T12:46:07;0.80;;;0.60;;
19127;SDS011;9696;53.686;10.094;2023-02-01T12:48:45;2.53;;;0.73;;
19127;SDS011;9696;53.686;10.094;2023-02-01T12:51:24;7.67;;;1.07;;
19127;SDS011;9696;53.686;10.094;2023-02-01T12:53:57;5.13;;;1.20;;
19127;SDS011;9696;53.686;10.094;2023-02-01T12:56:31;3.77;;;0.73;;
19127;SDS011;9696;53.686;10.094;2023-02-01T12:59:05;6.70;;;0.93;;
19127;SDS011;9696;53.686;10.094;2023-02-01T13:01:45;5.77;;;0.80;;
19127;SDS011;9696;53.686;10.094;2023-02-01T13:04:23;5.73;;;1.17;;
19127;SDS011;9696;53.686;10.094;2023-02-01T13:06:59;6.23;;;0.60;;
19127;SDS011;9696;53.686;10.094;2023-02-01T13:09:37;5.77;;;0.77;;
19127;SDS011;9696;53.686;10.094;2023-02-01T13:12:12;0.80;;;0.40;;
19127;SDS011;9696;53.686;10.094;2023-02-01T13:14:46;2.43;;;0.77;;
19127;SDS011;9696;53.686;10.094;2023-02-01T13:17:21;3.27;;;0.50;;
19127;SDS011;9696;53.686;10.094;2023-02-01T13:19:54;0.93;;;0.60;;
19127;SDS011;9696;53.686;10.094;2023-02-01T13:22:27;2.27;;;0.50;;
19127;SDS011;9696;53.686;10.094;2023-02-01T13:24:59;5.20;;;0.57;;
19127;SDS011;9696;53.686;10.094;2023-02-01T13:27:31;0.20;;;0.20;;
19127;SDS011;9696;53.686;10.094;2023-02-01T13:30:06;0.87;;;0.23;;
19127;SDS011;9696;53.686;10.094;2023-02-01T13:32:57;5.43;;;0.73;;
19127;SDS011;9696;53.686;10.094;2023-02-01T13:36:14;1.43;;;0.50;;
19127;SDS011;9696;53.686;10.094;2023-02-01T13:39:19;0.80;;;0.40;;
19127;SDS011;9696;53.686;10.094;2023-02-01T13:42:11;0.47;;;0.47;;
19127;SDS011;9696;53.686;10.094;2023-02-01T13:44:44;2.97;;;0.40;;
19127;SDS011;9696;53.686;10.094;2023-02-01T13:47:22;4.63;;;1.07;;
19127;SDS011;9696;53.686;10.094;2023-02-01T13:49:56;2.93;;;0.97;;
19127;SDS011;9696;53.686;10.094;2023-02-01T13:52:31;2.13;;;1.03;;
19127;SDS011;9696;53.686;10.094;2023-02-01T13:55:15;1.70;;;0.63;;
19127;SDS011;9696;53.686;10.094;2023-02-01T13:58:02;8.80;;;0.87;;
19127;SDS011;9696;53.686;10.094;2023-02-01T14:00:53;1.90;;;1.00;;
19127;SDS011;9696;53.686;10.094;2023-02-01T14:04:03;3.17;;;1.00;;
19127;SDS011;9696;53.686;10.094;2023-02-01T14:06:38;2.60;;;1.00;;
19127;SDS011;9696;53.686;10.094;2023-02-01T14:09:17;3.77;;;0.83;;
19127;SDS011;9696;53.686;10.094;2023-02-01T14:15:17;2.53;;;0.67;;
19127;SDS011;9696;53.686;10.094;2023-02-01T14:17:53;2.77;;;1.00;;
19127;SDS011;9696;53.686;10.094;2023-02-01T14:23:19;13.00;;;2.43;;
19127;SDS011;9696;53.686;10.094;2023-02-01T14:26:01;4.37;;;1.03;;
19127;SDS011;9696;53.686;10.094;2023-02-01T14:28:35;3.73;;;0.80;;
19127;SDS011;9696;53.686;10.094;2023-02-01T14:31:24;2.87;;;0.83;;
19127;SDS011;9696;53.686;10.094;2023-02-01T14:34:14;4.50;;;0.83;;
19127;SDS011;9696;53.686;10.094;2023-02-01T14:36:53;1.13;;;0.50;;
19127;SDS011;9696;53.686;10.094;2023-02-01T14:39:27;11.30;;;3.07;;
19127;SDS011;9696;53.686;10.094;2023-02-01T14:42:03;7.57;;;1.33;;
19127;SDS011;9696;53.686;10.094;2023-02-01T14:44:43;1.83;;;0.67;;
19127;SDS011;9696;53.686;10.094;2023-02-01T14:47:27;5.33;;;0.70;;
19127;SDS011;9696;53.686;10.094;2023-02-01T14:52:58;6.47;;;0.93;;
19127;SDS011;9696;53.686;10.094;2023-02-01T14:55:53;2.07;;;0.80;;
19127;SDS011;9696;53.686;10.094;2023-02-01T14:58:35;3.73;;;1.20;;
19127;SDS011;9696;53.686;10.094;2023-02-01T15:01:15;2.80;;;0.90;;
19127;SDS011;9696;53.686;10.094;2023-02-01T15:03:50;2.67;;;1.10;;
19127;SDS011;9696;53.686;10.094;2023-02-01T15:06:30;10.87;;;1.73;;
19127;SDS011;9696;53.686;10.094;2023-02-01T15:09:07;6.30;;;1.07;;
19127;SDS011;9696;53.686;10.094;2023-02-01T15:11:55;9.00;;;1.37;;
19127;SDS011;9696;53.686;10.094;2023-02-01T15:14:29;10.93;;;1.17;;
19127;SDS011;9696;53.686;10.094;2023-02-01T15:16:59;4.03;;;0.90;;
19127;SDS011;9696;53.686;10.094;2023-02-01T15:19:29;4.37;;;0.80;;
19127;SDS011;9696;53.686;10.094;2023-02-01T15:21:59;4.53;;;0.93;;
19127;SDS011;9696;53.686;10.094;2023-02-01T15:24:29;3.90;;;0.90;;
19127;SDS011;9696;53.686;10.094;2023-02-01T15:27:02;7.03;;;1.97;;
19127;SDS011;9696;53.686;10.094;2023-02-01T15:29:34;10.50;;;1.60;;
19127;SDS011;9696;53.686;10.094;2023-02-01T15:32:03;7.93;;;1.50;;
19127;SDS011;9696;53.686;10.094;2023-02-01T15:34:46;17.20;;;1.27;;
19127;SDS011;9696;53.686;10.094;2023-02-01T15:37:17;7.27;;;1.17;;
19127;SDS011;9696;53.686;10.094;2023-02-01T15:40:05;5.03;;;1.17;;
19127;SDS011;9696;53.686;10.094;2023-02-01T15:42:51;15.33;;;1.83;;
19127;SDS011;9696;53.686;10.094;2023-02-01T15:45:25;4.00;;;0.90;;